الصفحة الرئيسية
METAR-TAF:

METAR-TAF

مطار :

برازيليا, برازيليا, البرازيل

دائرة عرض: 15-52S, خط طول: 047-56W, ارتفاع: 1061 متر

مراقبة الطقس الحالي

تاريخ ووقت الإصدار 40 دقيقة قبل الساعة 09:00UTC
رياح هادئة
درجة الحرارة 12°درجة مئوية
الرطوبة 82%
ضغط 1023 hPa
الرؤية 10 كم أو أكثر
الغيوم لا تقل 1500 م ولا وجود لمزنة ركامية السحاب الأسود

METAR: SBBR 170900Z 00000KT CAVOK 12/09 Q1023

زمن: 06:40 (09:40 UTC)

توقعات

تاريخ ووقت الإصدار 5ساعات و 40 دقيقة قبل الساعة 04:00UTC
التوقعات صالحة من17 الساعة 06 UTC إلى 18 الساعة 06 UTC
ريح 4 عقدة من الشرق
الرؤية 10 كم أو أكثر
الغيوم لا تقل 1500 م ولا وجود لمزنة ركامية السحاب الأسود
نظرية الاحتمالات 30%
من 17 الساعة 16 UTC إلى 17 الساعة 18 UTC
الرؤية 10 كم أو أكثر
غيوم قليلة على ارتفاع 4000 قدم
أصبح
من 17 الساعة 18 UTC إلى 17 الساعة 20 UTC
ريح 4 عقدة من الشرق

TAF: SBBR 170400Z 1706/1806 09004KT CAVOK TN10/1708Z TX26/1718Z PROB30 1716/1718 9999 FEW040 BECMG 1718/1720 09004KT RMK PDS

أرصاد الطقس والتوقعات من أكثر من 4000 مطار (تقارير الطقس للمطار METAR والتنبؤ بالطقس بالمطارTAF).

المحطات المتاحة هي النقط الصفراء والحمراء على الخريطة.

حرك المؤشر فوق النقطة لمعرفة اسم المحطة.

ثم انقر لمعرفة أرصاد وتوقعات الطقس.

لتغيير الخارطة: اضغط على الأزرار الخضراء مع رمز الصليب الأسود للتكبير. على الزر الأخضر مع شرطة للتصغير، أو على الأسهم الخضراء للخرائط المجاورة.


METAR-TAF: